createdAt,value
2024-01-16T00:01:47.294Z,-0.45
2024-01-16T00:04:13.786Z,-0.46
2024-01-16T00:06:45.919Z,-0.49
2024-01-16T00:09:13.659Z,-0.52
2024-01-16T00:11:43.462Z,-0.58
2024-01-16T00:14:09.911Z,-0.54
2024-01-16T00:16:42.952Z,-0.62
2024-01-16T00:19:10.272Z,-0.63
2024-01-16T00:21:40.819Z,-0.73
2024-01-16T00:24:08.079Z,-0.78
2024-01-16T00:26:34.575Z,-0.74
2024-01-16T00:29:01.962Z,-0.65
2024-01-16T00:31:28.401Z,-0.71
2024-01-16T00:33:55.444Z,-0.73
2024-01-16T00:36:21.899Z,-0.80
2024-01-16T00:38:48.529Z,-0.82
2024-01-16T00:41:16.167Z,-0.71
2024-01-16T00:43:45.677Z,-0.67
2024-01-16T00:46:12.047Z,-0.76
2024-01-16T00:48:38.725Z,-0.75
2024-01-16T00:51:05.285Z,-0.74
2024-01-16T00:53:31.684Z,-0.65
2024-01-16T00:55:58.107Z,-0.59
2024-01-16T00:58:24.547Z,-0.55
2024-01-16T01:00:51.015Z,-0.59
2024-01-16T01:03:17.526Z,-0.57
2024-01-16T01:05:44.059Z,-0.55
2024-01-16T01:08:10.527Z,-0.50
2024-01-16T01:10:36.952Z,-0.53
2024-01-16T01:13:03.325Z,-0.55
2024-01-16T01:15:29.712Z,-0.59
2024-01-16T01:17:56.270Z,-0.60
2024-01-16T01:20:22.865Z,-0.59
2024-01-16T01:22:49.327Z,-0.61
2024-01-16T01:25:15.735Z,-0.65
2024-01-16T01:27:42.165Z,-0.64
2024-01-16T01:30:11.164Z,-0.65
2024-01-16T01:32:37.965Z,-0.58
2024-01-16T01:35:04.762Z,-0.63
2024-01-16T01:37:31.148Z,-0.64
2024-01-16T01:39:57.506Z,-0.64
2024-01-16T01:42:23.909Z,-0.72
2024-01-16T01:44:50.336Z,-0.69
2024-01-16T01:47:16.809Z,-0.73
2024-01-16T01:49:43.246Z,-0.75
2024-01-16T01:52:09.616Z,-0.69
2024-01-16T01:54:36.442Z,-0.71
2024-01-16T01:57:02.983Z,-0.77
2024-01-16T01:59:29.395Z,-0.74
2024-01-16T02:01:55.814Z,-0.83
2024-01-16T02:04:22.706Z,-0.82
2024-01-16T02:06:49.237Z,-0.77
2024-01-16T02:09:15.672Z,-0.77
2024-01-16T02:11:42.477Z,-0.81
2024-01-16T02:14:08.991Z,-0.82
2024-01-16T02:16:41.991Z,-0.79
2024-01-16T02:19:08.502Z,-0.79
2024-01-16T02:21:47.824Z,-0.81
2024-01-16T02:24:16.252Z,-0.85
2024-01-16T02:26:42.818Z,-0.85
2024-01-16T02:29:09.304Z,-0.78
2024-01-16T02:31:35.804Z,-0.74
2024-01-16T02:34:02.240Z,-0.83
2024-01-16T02:36:28.879Z,-0.89
2024-01-16T02:38:56.008Z,-0.91
2024-01-16T02:41:22.519Z,-0.86
2024-01-16T02:43:50.621Z,-0.90
2024-01-16T02:46:17.022Z,-0.86
2024-01-16T02:48:46.605Z,-0.90
2024-01-16T02:51:13.115Z,-0.85
2024-01-16T02:53:39.559Z,-0.83
2024-01-16T02:56:06.010Z,-0.82
2024-01-16T02:58:32.482Z,-0.87
2024-01-16T03:00:58.884Z,-0.74
2024-01-16T03:03:25.992Z,-0.81
2024-01-16T03:05:52.454Z,-0.82
2024-01-16T03:08:18.917Z,-0.74
2024-01-16T03:10:46.111Z,-0.80
2024-01-16T03:13:12.505Z,-0.81
2024-01-16T03:15:38.868Z,-0.85
2024-01-16T03:18:05.534Z,-0.79
2024-01-16T03:20:32.129Z,-0.88
2024-01-16T03:22:58.555Z,-0.83
2024-01-16T03:25:24.916Z,-0.82
2024-01-16T03:27:51.281Z,-0.79
2024-01-16T03:30:18.437Z,-0.80
2024-01-16T03:32:45.057Z,-0.82
2024-01-16T03:35:11.482Z,-0.77
2024-01-16T03:37:38.712Z,-0.78
2024-01-16T03:40:05.244Z,-0.84
2024-01-16T03:42:31.599Z,-0.83
2024-01-16T03:44:58.018Z,-0.80
2024-01-16T03:47:24.635Z,-0.78
2024-01-16T03:49:51.112Z,-0.79
2024-01-16T03:52:17.488Z,-0.81
2024-01-16T03:54:43.868Z,-0.81
2024-01-16T03:57:10.249Z,-0.76
2024-01-16T03:59:37.925Z,-0.80
2024-01-16T04:02:04.473Z,-0.84
2024-01-16T04:04:30.894Z,-0.84
2024-01-16T04:06:57.257Z,-0.85
2024-01-16T04:09:23.725Z,-0.87
2024-01-16T04:11:52.997Z,-0.83
2024-01-16T04:14:19.718Z,-0.85
2024-01-16T04:16:46.591Z,-0.80
2024-01-16T04:19:13.816Z,-0.81
2024-01-16T04:21:40.244Z,-0.79
2024-01-16T04:24:06.608Z,-0.80
2024-01-16T04:26:33.009Z,-0.90
2024-01-16T04:28:59.673Z,-0.96
2024-01-16T04:31:26.077Z,-0.92
2024-01-16T04:33:52.611Z,-0.83
2024-01-16T04:36:19.071Z,-0.91
2024-01-16T04:38:45.549Z,-0.76
2024-01-16T04:41:12.066Z,-0.91
2024-01-16T04:43:38.454Z,-0.86
2024-01-16T04:46:04.865Z,-0.91
2024-01-16T04:48:31.376Z,-0.90
2024-01-16T04:50:58.118Z,-0.89
2024-01-16T04:53:24.814Z,-0.82
2024-01-16T04:55:51.220Z,-0.88
2024-01-16T04:58:17.650Z,-0.84
2024-01-16T05:00:44.058Z,-0.95
2024-01-16T05:03:10.467Z,-0.95
2024-01-16T05:05:36.984Z,-0.91
2024-01-16T05:08:03.970Z,-0.93
2024-01-16T05:10:31.601Z,-0.93
2024-01-16T05:12:57.996Z,-0.86
2024-01-16T05:15:24.541Z,-0.90
2024-01-16T05:17:51.200Z,-0.91
2024-01-16T05:20:17.713Z,-0.99
2024-01-16T05:22:44.090Z,-0.90
2024-01-16T05:25:10.490Z,-0.96
2024-01-16T05:27:36.973Z,-1.00
2024-01-16T05:30:03.509Z,-0.98
2024-01-16T05:32:30.395Z,-0.93
2024-01-16T05:34:56.791Z,-1.05
2024-01-16T05:37:23.185Z,-1.10
2024-01-16T05:39:49.609Z,-0.96
2024-01-16T05:42:16.762Z,-0.98
2024-01-16T05:44:43.231Z,-1.01
2024-01-16T05:47:09.893Z,-1.00
2024-01-16T05:49:36.941Z,-1.01
2024-01-16T05:52:03.462Z,-1.02
2024-01-16T05:54:30.043Z,-0.93
2024-01-16T05:56:56.485Z,-0.91
2024-01-16T05:59:22.922Z,-0.94
2024-01-16T06:01:50.270Z,-1.07
2024-01-16T06:04:16.953Z,-1.07
2024-01-16T06:06:48.754Z,-1.03
2024-01-16T06:09:15.591Z,-1.10
2024-01-16T06:11:42.166Z,-1.03
2024-01-16T06:14:08.937Z,-1.08
2024-01-16T06:16:35.343Z,-1.06
2024-01-16T06:19:01.803Z,-1.03
2024-01-16T06:21:28.420Z,-1.02
2024-01-16T06:23:54.881Z,-1.03
2024-01-16T06:26:21.299Z,-0.93
2024-01-16T06:28:47.668Z,-0.94
2024-01-16T06:31:14.134Z,-1.02
2024-01-16T06:33:40.616Z,-0.99
2024-01-16T06:36:07.813Z,-0.99
2024-01-16T06:38:34.286Z,-0.96
2024-01-16T06:41:01.716Z,-0.99
2024-01-16T06:43:28.673Z,-0.99
2024-01-16T06:45:55.526Z,-0.87
2024-01-16T06:48:22.077Z,-0.76
2024-01-16T06:50:48.675Z,-0.90
2024-01-16T06:53:17.233Z,-0.93
2024-01-16T06:55:43.917Z,-0.90
2024-01-16T06:58:11.299Z,-0.88
2024-01-16T07:00:37.857Z,-0.87
2024-01-16T07:03:04.398Z,-0.90
2024-01-16T07:05:30.923Z,-0.89
2024-01-16T07:07:57.609Z,-1.00
2024-01-16T07:10:25.232Z,-0.95
2024-01-16T07:12:52.630Z,-0.96
2024-01-16T07:15:19.458Z,-1.01
2024-01-16T07:17:45.990Z,-0.96
2024-01-16T07:20:12.549Z,-0.88
2024-01-16T07:22:40.617Z,-0.99
2024-01-16T07:25:07.774Z,-1.00
2024-01-16T07:27:34.134Z,-1.02
2024-01-16T07:30:00.547Z,-0.94
2024-01-16T07:32:28.415Z,-0.79
2024-01-16T07:34:55.758Z,-0.81
2024-01-16T07:37:22.387Z,-0.82
2024-01-16T07:39:49.049Z,-0.93
2024-01-16T07:42:15.488Z,-0.91
2024-01-16T07:44:41.851Z,-0.89
2024-01-16T07:47:08.962Z,-0.84
2024-01-16T07:49:35.537Z,-0.83
2024-01-16T07:52:01.958Z,-0.88
2024-01-16T07:54:28.319Z,-0.80
2024-01-16T07:56:55.080Z,-0.69
2024-01-16T07:59:21.560Z,-0.78
2024-01-16T08:01:48.000Z,-0.74
2024-01-16T08:04:14.898Z,-0.81
2024-01-16T08:06:41.427Z,-0.78
2024-01-16T08:09:07.893Z,-0.75
2024-01-16T08:11:36.903Z,-0.65
2024-01-16T08:14:04.409Z,-0.61
2024-01-16T08:16:30.787Z,-0.62
2024-01-16T08:18:57.251Z,-0.54
2024-01-16T08:21:23.741Z,-0.46
2024-01-16T08:23:50.200Z,-0.50
2024-01-16T08:26:16.629Z,-0.40
2024-01-16T08:28:43.006Z,-0.45
2024-01-16T08:31:09.907Z,-0.46
2024-01-16T08:33:43.189Z,-0.48
2024-01-16T08:36:13.346Z,-0.39
2024-01-16T08:38:39.814Z,-0.39
2024-01-16T08:41:07.611Z,-0.42
2024-01-16T08:43:36.969Z,-0.51
2024-01-16T08:46:03.397Z,-0.44
2024-01-16T08:48:29.975Z,-0.49
2024-01-16T08:50:57.206Z,-0.43
2024-01-16T08:53:24.713Z,-0.45
2024-01-16T08:55:51.173Z,-0.42
2024-01-16T08:58:17.607Z,-0.35
2024-01-16T09:00:44.050Z,-0.32
2024-01-16T09:03:10.519Z,-0.32
2024-01-16T09:05:40.305Z,-0.21
2024-01-16T09:08:08.085Z,-0.31
2024-01-16T09:10:36.050Z,-0.34
2024-01-16T09:13:02.540Z,-0.15
2024-01-16T09:15:28.946Z,-0.20
2024-01-16T09:17:55.430Z,-0.25
2024-01-16T09:20:21.941Z,-0.23
2024-01-16T09:22:48.403Z,-0.17
2024-01-16T09:25:14.867Z,0.00
2024-01-16T09:27:41.255Z,-0.09
2024-01-16T09:30:08.457Z,-0.08
2024-01-16T09:32:36.316Z,-0.15
2024-01-16T09:35:05.648Z,-0.09
2024-01-16T09:37:32.130Z,-0.19
2024-01-16T09:39:58.488Z,-0.13
2024-01-16T09:42:25.716Z,-0.11
2024-01-16T09:44:52.185Z,-0.18
2024-01-16T09:47:18.726Z,0.01
2024-01-16T09:49:45.213Z,0.06
2024-01-16T09:52:11.715Z,-0.02
2024-01-16T09:54:38.299Z,-0.14
2024-01-16T09:57:04.738Z,-0.11
2024-01-16T09:59:31.546Z,-0.03
2024-01-16T10:01:59.289Z,0.07
2024-01-16T10:04:25.739Z,-0.10
2024-01-16T10:06:52.225Z,-0.04
2024-01-16T10:09:18.631Z,-0.10
2024-01-16T10:11:45.157Z,-0.15
2024-01-16T10:14:12.222Z,0.01
2024-01-16T10:16:58.921Z,0.13
2024-01-16T10:19:35.124Z,0.25
2024-01-16T10:22:09.365Z,0.27
2024-01-16T10:24:36.576Z,0.32
2024-01-16T10:27:07.181Z,0.02
2024-01-16T10:29:43.297Z,-0.17
2024-01-16T10:32:18.257Z,-0.10
2024-01-16T10:34:44.750Z,0.00
2024-01-16T10:37:11.233Z,0.06
2024-01-16T10:39:43.598Z,0.14
2024-01-16T10:42:10.633Z,0.02
2024-01-16T10:44:39.174Z,0.03
2024-01-16T10:47:13.035Z,-0.07
2024-01-16T10:49:43.340Z,0.07
2024-01-16T10:52:13.616Z,-0.06
2024-01-16T10:54:41.890Z,0.04
2024-01-16T10:57:08.271Z,0.02
2024-01-16T10:59:41.040Z,0.05
2024-01-16T11:02:07.432Z,-0.08
2024-01-16T11:04:34.016Z,-0.06
2024-01-16T11:07:00.429Z,-0.15
2024-01-16T11:09:26.882Z,-0.16
2024-01-16T11:11:54.415Z,-0.11
2024-01-16T11:14:23.538Z,-0.07
2024-01-16T11:16:50.667Z,-0.09
2024-01-16T11:19:31.443Z,-0.16
2024-01-16T11:22:06.007Z,-0.15
2024-01-16T11:24:32.591Z,-0.28
2024-01-16T11:26:59.025Z,-0.27
2024-01-16T11:29:29.012Z,-0.23
2024-01-16T11:32:08.745Z,-0.19
2024-01-16T11:34:42.148Z,-0.08
2024-01-16T11:37:09.235Z,-0.11
2024-01-16T11:39:36.759Z,0.01
2024-01-16T11:42:04.234Z,-0.01
2024-01-16T11:44:44.284Z,0.00
2024-01-16T11:47:11.607Z,-0.18
2024-01-16T11:49:38.262Z,-0.11
2024-01-16T11:52:05.441Z,-0.09
2024-01-16T11:54:31.804Z,-0.16
2024-01-16T11:57:13.517Z,-0.18
2024-01-16T12:00:15.546Z,-0.25
2024-01-16T12:02:49.144Z,-0.10
2024-01-16T12:05:15.841Z,-0.18
2024-01-16T12:07:51.906Z,-0.12
2024-01-16T12:10:19.031Z,-0.04
2024-01-16T12:12:45.604Z,-0.07
2024-01-16T12:15:17.216Z,-0.13
2024-01-16T12:17:56.670Z,-0.06
2024-01-16T12:20:23.832Z,-0.17
2024-01-16T12:22:54.119Z,-0.10
2024-01-16T12:25:21.058Z,-0.01
2024-01-16T12:27:47.413Z,0.00
2024-01-16T12:30:14.485Z,-0.22
2024-01-16T12:32:40.918Z,-0.31
2024-01-16T12:35:07.659Z,-0.19
2024-01-16T12:37:34.560Z,-0.15
2024-01-16T12:40:00.939Z,-0.18
2024-01-16T12:42:27.363Z,-0.22
2024-01-16T12:44:54.309Z,-0.23
2024-01-16T12:47:22.641Z,-0.26
2024-01-16T12:49:49.251Z,-0.35
2024-01-16T12:52:19.464Z,-0.41
2024-01-16T12:54:46.077Z,-0.39
2024-01-16T12:57:17.412Z,-0.31
2024-01-16T12:59:43.947Z,-0.33
2024-01-16T13:02:11.534Z,-0.30
2024-01-16T13:04:37.995Z,-0.26
2024-01-16T13:07:05.106Z,-0.23
2024-01-16T13:09:32.844Z,-0.32
2024-01-16T13:12:02.035Z,-0.26
2024-01-16T13:14:28.627Z,-0.25
2024-01-16T13:16:57.919Z,-0.36
2024-01-16T13:19:24.544Z,-0.43
2024-01-16T13:21:51.021Z,-0.49
2024-01-16T13:24:19.149Z,-0.41
2024-01-16T13:26:45.805Z,-0.28
2024-01-16T13:29:12.540Z,-0.20
2024-01-16T13:31:39.866Z,-0.28
2024-01-16T13:34:06.703Z,-0.36
2024-01-16T13:36:54.646Z,-0.37
2024-01-16T13:39:29.279Z,-0.37
2024-01-16T13:41:55.758Z,-0.60
2024-01-16T13:44:22.504Z,-0.65
2024-01-16T13:46:57.583Z,-0.57
2024-01-16T13:49:34.528Z,-0.55
2024-01-16T13:52:01.239Z,-0.42
2024-01-16T13:54:27.593Z,-0.44
2024-01-16T13:57:03.152Z,-0.46
2024-01-16T13:59:33.803Z,-0.42
2024-01-16T14:02:00.272Z,-0.43
2024-01-16T14:04:26.938Z,-0.37
2024-01-16T14:07:09.576Z,-0.57
2024-01-16T14:09:39.375Z,-0.58
2024-01-16T14:12:09.541Z,-0.41
2024-01-16T14:14:36.296Z,-0.48
2024-01-16T14:17:03.201Z,-0.52
2024-01-16T14:19:31.619Z,-0.60
2024-01-16T14:21:58.593Z,-0.54
2024-01-16T14:24:24.963Z,-0.50
2024-01-16T14:26:51.502Z,-0.40
2024-01-16T14:29:18.053Z,-0.34
2024-01-16T14:31:44.473Z,-0.43
2024-01-16T14:34:17.094Z,-0.45
2024-01-16T14:36:43.585Z,-0.67
2024-01-16T14:39:14.744Z,-0.57
2024-01-16T14:41:42.432Z,-0.60
2024-01-16T14:44:10.470Z,-0.50
2024-01-16T14:46:37.176Z,-0.73
2024-01-16T14:49:03.773Z,-0.73
2024-01-16T14:51:30.760Z,-0.81
2024-01-16T14:53:57.334Z,-0.71
2024-01-16T14:56:23.818Z,-0.82
2024-01-16T14:58:50.391Z,-0.69
2024-01-16T15:01:17.921Z,-0.71
2024-01-16T15:03:44.370Z,-0.74
2024-01-16T15:06:13.837Z,-0.71
2024-01-16T15:08:40.638Z,-0.72
2024-01-16T15:11:08.031Z,-0.76
2024-01-16T15:13:34.754Z,-0.75
2024-01-16T15:16:01.679Z,-0.66
2024-01-16T15:18:28.898Z,-0.76
2024-01-16T15:20:56.436Z,-0.81
2024-01-16T15:23:24.166Z,-0.75
2024-01-16T15:25:50.758Z,-0.75
2024-01-16T15:28:17.142Z,-0.78
2024-01-16T15:30:44.156Z,-0.74
2024-01-16T15:33:10.620Z,-0.74
2024-01-16T15:35:37.164Z,-0.73
2024-01-16T15:38:03.847Z,-0.82
2024-01-16T15:40:31.351Z,-0.81
2024-01-16T15:42:58.548Z,-0.88
2024-01-16T15:45:27.459Z,-0.83
2024-01-16T15:47:54.361Z,-0.85
2024-01-16T15:50:20.892Z,-0.87
2024-01-16T15:52:47.415Z,-0.93
2024-01-16T15:55:13.812Z,-0.94
2024-01-16T15:57:40.208Z,-1.00
2024-01-16T16:00:10.548Z,-1.06
2024-01-16T16:02:38.083Z,-1.16
2024-01-16T16:05:04.773Z,-0.95
2024-01-16T16:07:31.199Z,-1.10
2024-01-16T16:09:57.570Z,-1.04
2024-01-16T16:12:23.997Z,-1.08
2024-01-16T16:14:50.575Z,-1.06
2024-01-16T16:17:17.125Z,-1.11
2024-01-16T16:19:43.552Z,-1.07
2024-01-16T16:22:09.998Z,-0.85
2024-01-16T16:24:36.495Z,-0.92
2024-01-16T16:27:05.848Z,-1.00
2024-01-16T16:29:32.330Z,-0.91
2024-01-16T16:31:59.395Z,-0.89
2024-01-16T16:34:25.879Z,-1.08
2024-01-16T16:36:52.697Z,-1.14
2024-01-16T16:39:19.195Z,-1.02
2024-01-16T16:41:45.660Z,-1.18
2024-01-16T16:44:12.084Z,-1.04
2024-01-16T16:46:38.607Z,-1.21
2024-01-16T16:49:05.332Z,-1.19
2024-01-16T16:51:31.875Z,-1.25
2024-01-16T16:53:58.358Z,-1.33
2024-01-16T16:56:24.865Z,-1.44
2024-01-16T16:58:51.735Z,-1.62
2024-01-16T17:01:18.732Z,-1.54
2024-01-16T17:03:47.198Z,-1.53
2024-01-16T17:06:14.380Z,-1.73
2024-01-16T17:08:40.809Z,-1.47
2024-01-16T17:11:10.230Z,-1.57
2024-01-16T17:13:37.635Z,-1.61
2024-01-16T17:16:04.119Z,-1.64
2024-01-16T17:18:34.197Z,-1.52
2024-01-16T17:21:00.947Z,-1.65
2024-01-16T17:23:27.450Z,-1.58
2024-01-16T17:25:58.790Z,-1.59
2024-01-16T17:28:26.033Z,-1.56
2024-01-16T17:30:55.919Z,-1.60
2024-01-16T17:33:22.456Z,-1.50
2024-01-16T17:35:49.642Z,-1.53
2024-01-16T17:38:16.304Z,-1.53
2024-01-16T17:40:42.949Z,-1.47
2024-01-16T17:43:09.457Z,-1.43
2024-01-16T17:45:35.840Z,-1.56
2024-01-16T17:48:02.549Z,-1.57
2024-01-16T17:50:28.975Z,-1.55
2024-01-16T17:52:55.479Z,-1.66
2024-01-16T17:55:24.074Z,-1.81
2024-01-16T17:57:51.085Z,-1.76
2024-01-16T18:00:17.961Z,-1.91
2024-01-16T18:02:44.337Z,-1.69
2024-01-16T18:05:17.533Z,-1.82
2024-01-16T18:07:44.212Z,-1.83
2024-01-16T18:10:10.588Z,-1.92
2024-01-16T18:12:38.136Z,-1.73
2024-01-16T18:15:12.809Z,-1.68
2024-01-16T18:17:42.674Z,-1.87
2024-01-16T18:20:11.022Z,-1.72
2024-01-16T18:22:38.120Z,-1.71
2024-01-16T18:25:10.434Z,-2.20
2024-01-16T18:27:37.073Z,-2.42
2024-01-16T18:30:05.842Z,-2.66
2024-01-16T18:32:33.613Z,-2.58
2024-01-16T18:35:00.396Z,-2.55
2024-01-16T18:37:26.792Z,-2.67
2024-01-16T18:39:53.168Z,-2.64
2024-01-16T18:42:23.536Z,-2.86
2024-01-16T18:44:49.982Z,-2.75
2024-01-16T18:47:21.923Z,-2.72
2024-01-16T18:49:51.672Z,-2.78
2024-01-16T18:52:18.872Z,-3.09
2024-01-16T18:54:45.230Z,-3.28
2024-01-16T18:57:11.834Z,-3.17
2024-01-16T18:59:38.305Z,-3.14
2024-01-16T19:02:04.919Z,-3.28
2024-01-16T19:04:33.625Z,-3.63
2024-01-16T19:07:01.187Z,-3.50
2024-01-16T19:09:33.032Z,-3.80
2024-01-16T19:11:59.477Z,-3.43
2024-01-16T19:14:25.974Z,-3.70
2024-01-16T19:16:52.378Z,-3.50
2024-01-16T19:19:21.502Z,-3.42
2024-01-16T19:21:48.114Z,-3.28
2024-01-16T19:24:15.854Z,-3.19
2024-01-16T19:26:44.602Z,-3.20
2024-01-16T19:29:11.084Z,-3.33
2024-01-16T19:31:37.502Z,-3.31
2024-01-16T19:34:05.531Z,-3.35
2024-01-16T19:36:31.990Z,-3.31
2024-01-16T19:38:58.752Z,-3.30
2024-01-16T19:41:25.294Z,-3.61
2024-01-16T19:43:51.725Z,-4.04
2024-01-16T19:46:18.241Z,-4.14
2024-01-16T19:48:44.834Z,-4.42
2024-01-16T19:51:11.476Z,-4.30
2024-01-16T19:53:39.310Z,-4.26
2024-01-16T19:56:08.232Z,-4.31
2024-01-16T19:58:36.371Z,-4.68
2024-01-16T20:01:03.953Z,-4.96
2024-01-16T20:03:32.427Z,-5.01
2024-01-16T20:05:59.226Z,-5.00
2024-01-16T20:08:27.167Z,-4.78
2024-01-16T20:10:53.984Z,-4.86
2024-01-16T20:13:20.409Z,-4.88
2024-01-16T20:15:47.143Z,-4.95
2024-01-16T20:18:13.672Z,-4.75
2024-01-16T20:20:40.287Z,-4.99
2024-01-16T20:23:07.328Z,-5.26
2024-01-16T20:25:33.723Z,-5.17
2024-01-16T20:28:04.781Z,-5.16
2024-01-16T20:30:31.515Z,-5.26
2024-01-16T20:32:58.285Z,-5.24
2024-01-16T20:35:25.174Z,-5.57
2024-01-16T20:37:51.660Z,-5.15
2024-01-16T20:40:18.140Z,-5.16
2024-01-16T20:42:44.498Z,-5.02
2024-01-16T20:45:11.071Z,-4.79
2024-01-16T20:47:37.832Z,-4.83
2024-01-16T20:50:06.444Z,-4.98
2024-01-16T20:52:33.993Z,-5.23
2024-01-16T20:55:02.714Z,-4.84
2024-01-16T20:57:30.968Z,-5.04
2024-01-16T20:59:57.494Z,-4.86
2024-01-16T21:02:24.168Z,-5.05
2024-01-16T21:04:50.887Z,-4.88
2024-01-16T21:07:17.527Z,-4.82
2024-01-16T21:09:43.959Z,-4.83
2024-01-16T21:12:10.366Z,-5.02
2024-01-16T21:14:36.767Z,-5.28
2024-01-16T21:17:07.184Z,-5.26
2024-01-16T21:19:33.600Z,-5.06
2024-01-16T21:22:01.480Z,-5.04
2024-01-16T21:24:29.694Z,-4.88
2024-01-16T21:26:56.195Z,-4.95
2024-01-16T21:29:24.293Z,-4.79
2024-01-16T21:31:53.950Z,-4.82
2024-01-16T21:34:24.346Z,-4.82
2024-01-16T21:36:52.647Z,-4.92
2024-01-16T21:39:19.956Z,-5.12
2024-01-16T21:41:47.376Z,-5.17
2024-01-16T21:44:14.596Z,-4.94
2024-01-16T21:46:42.816Z,-5.08
2024-01-16T21:49:09.492Z,-4.90
2024-01-16T21:51:35.970Z,-5.03
2024-01-16T21:54:02.856Z,-5.04
2024-01-16T21:56:29.441Z,-4.82
2024-01-16T21:58:56.740Z,-4.97
2024-01-16T22:01:23.089Z,-4.65
2024-01-16T22:03:49.488Z,-4.66
2024-01-16T22:06:16.481Z,-4.75
2024-01-16T22:08:48.842Z,-4.58
2024-01-16T22:11:15.280Z,-4.65
2024-01-16T22:13:41.808Z,-4.71
2024-01-16T22:16:09.168Z,-4.59
2024-01-16T22:18:35.774Z,-4.60
2024-01-16T22:21:02.921Z,-4.54
2024-01-16T22:23:29.469Z,-4.44
2024-01-16T22:25:56.026Z,-4.71
2024-01-16T22:28:22.416Z,-4.80
2024-01-16T22:30:48.809Z,-4.82
2024-01-16T22:33:15.307Z,-4.65
2024-01-16T22:35:41.788Z,-4.77
2024-01-16T22:38:08.168Z,-4.96
2024-01-16T22:40:37.551Z,-4.90
2024-01-16T22:43:06.455Z,-5.00
2024-01-16T22:45:32.881Z,-5.13
2024-01-16T22:48:00.360Z,-5.28
2024-01-16T22:50:27.522Z,-5.22
2024-01-16T22:52:53.989Z,-5.27
2024-01-16T22:55:20.514Z,-5.11
2024-01-16T22:57:47.502Z,-4.71
2024-01-16T23:00:22.982Z,-4.78
2024-01-16T23:02:49.721Z,-4.81
2024-01-16T23:05:17.216Z,-4.85
2024-01-16T23:07:45.510Z,-4.74
2024-01-16T23:10:15.325Z,-4.86
2024-01-16T23:12:42.303Z,-4.67
2024-01-16T23:15:09.797Z,-5.03
2024-01-16T23:17:36.689Z,-5.20
2024-01-16T23:20:03.097Z,-5.03
2024-01-16T23:22:30.928Z,-5.24
2024-01-16T23:24:57.287Z,-5.17
2024-01-16T23:27:23.710Z,-5.08
2024-01-16T23:29:50.145Z,-5.09
2024-01-16T23:32:16.549Z,-5.14
2024-01-16T23:34:43.005Z,-5.18
2024-01-16T23:37:09.485Z,-5.49
2024-01-16T23:39:37.348Z,-5.48
2024-01-16T23:42:04.046Z,-5.20
2024-01-16T23:44:30.595Z,-5.15
2024-01-16T23:46:57.130Z,-5.09
2024-01-16T23:49:23.535Z,-5.21
2024-01-16T23:51:49.930Z,-5.27
2024-01-16T23:54:16.300Z,-5.25
2024-01-16T23:56:42.732Z,-5.43
2024-01-16T23:59:09.151Z,-5.67
